Accueil
METAR-TAF:

METAR-TAF

Aéroports :

Base aérienne 116 Luxeuil-Saint Sauveur

Luxeuil-les-Bains, France

latitude: 47-47N, longitude: 006-21E, altitude: 278 m

Observation

Le bulletin a été fait il y a 28 minutes, à 18:30 UTC
Vent 6 kt de nord/nord-est
Température 7°C
Humidité 53%
Pression 1032 hPa
Visibilité 10 km ou plus
pas de nuages en-dessous de 1500 mètres et pas de cumulonimbus.

METAR: LFSX 271830Z AUTO 02006KT CAVOK 07/M02 Q1032

Heure: 19:58 (18:58 UTC)

Prévision

Le bulletin a été fait il y a 28 heures et 58 minutes, à 14:00 UTC
Prévision valable du 26 à 15 UTC au 27 à 15 UTC
Vent 10 kt de nord-ouest
Visibilité 10 km ou plus
Nuages fragmentés à une hauteur de 3000 ft
Temporairement
du 26 à 16 UTC au 26 à 20 UTC
Visibilité: 4900 m
Nuages fragmentés à une hauteur de 900 ft
pluie faible

TAF: LFSX 261400Z 2615/2715 32010KT 9999 BKN030 TEMPO 2616/2620 4900 -RA BKN009

Observations et prévisions météorologiques de plus de 4000 aéroports (messages METAR et TAF).

Les stations disponibles sont représentées par des disques jaunes et rouges sur la carte.

Passer la souris dessus pour voir le nom de la station.

Cliquer dessus pour voir les observations et prévisions météorologiques.

Pour changer de carte: cliquez sur les boutons verts avec une croix noire pour zoomer, sur le bouton vert avec un tiret pour effectuer un zoom arrière, ou sur les flèches vertes pour les cartes adjacentes.


METAR-TAF: